createdAt,value
2019-04-13T00:03:04.165Z,59.57
2019-04-13T00:06:40.593Z,60.48
2019-04-13T00:10:04.007Z,60.50
2019-04-13T00:13:27.021Z,61.05
2019-04-13T00:16:50.026Z,61.74
2019-04-13T00:20:13.158Z,60.23
2019-04-13T00:23:36.181Z,61.16
2019-04-13T00:26:59.276Z,61.30
2019-04-13T00:30:22.667Z,61.46
2019-04-13T00:33:45.726Z,61.34
2019-04-13T00:37:08.742Z,60.58
2019-04-13T00:40:31.738Z,61.37
2019-04-13T00:43:54.806Z,60.97
2019-04-13T00:47:18.023Z,61.28
2019-04-13T00:50:41.086Z,61.72
2019-04-13T00:54:04.126Z,62.13
2019-04-13T00:57:28.962Z,62.07
2019-04-13T01:00:52.230Z,61.51
2019-04-13T01:04:16.430Z,62.21
2019-04-13T01:07:39.487Z,61.79
2019-04-13T01:11:02.754Z,62.09
2019-04-13T01:14:25.766Z,62.14
2019-04-13T01:17:48.817Z,62.13
2019-04-13T01:21:12.150Z,62.73
2019-04-13T01:24:35.168Z,63.00
2019-04-13T01:27:58.426Z,63.29
2019-04-13T01:31:21.826Z,62.99
2019-04-13T01:34:44.876Z,63.32
2019-04-13T01:38:07.987Z,63.76
2019-04-13T01:41:32.221Z,63.53
2019-04-13T01:44:55.508Z,63.83
2019-04-13T01:48:18.544Z,63.69
2019-04-13T01:51:41.866Z,64.37
2019-04-13T01:55:05.043Z,63.57
2019-04-13T01:58:28.218Z,63.31
2019-04-13T02:02:09.702Z,64.31
2019-04-13T02:05:44.037Z,64.31
2019-04-13T02:09:20.383Z,63.67
2019-04-13T02:12:43.387Z,63.39
2019-04-13T02:16:06.472Z,63.85
2019-04-13T02:19:29.665Z,63.95
2019-04-13T02:22:52.640Z,64.68
2019-04-13T02:26:15.677Z,65.02
2019-04-13T02:29:38.657Z,65.16
2019-04-13T02:33:01.817Z,65.40
2019-04-13T02:36:26.157Z,65.49
2019-04-13T02:39:49.451Z,65.69
2019-04-13T02:43:12.641Z,66.12
2019-04-13T02:46:35.955Z,66.10
2019-04-13T02:49:59.160Z,66.25
2019-04-13T02:53:23.306Z,65.81
2019-04-13T02:56:46.296Z,66.54
2019-04-13T03:00:11.955Z,65.78
2019-04-13T03:03:36.439Z,65.54
2019-04-13T03:06:59.425Z,66.04
2019-04-13T03:10:22.457Z,66.07
2019-04-13T03:13:45.480Z,66.18
2019-04-13T03:17:31.045Z,65.82
2019-04-13T03:20:54.451Z,65.91
2019-04-13T03:24:17.566Z,66.10
2019-04-13T03:27:40.577Z,65.95
2019-04-13T03:31:03.580Z,66.26
2019-04-13T03:34:28.561Z,67.22
2019-04-13T03:37:51.607Z,66.05
2019-04-13T03:41:14.892Z,67.13
2019-04-13T03:44:37.899Z,66.97
2019-04-13T03:48:00.859Z,67.23
2019-04-13T03:51:23.887Z,67.00
2019-04-13T03:54:46.887Z,67.50
2019-04-13T03:58:09.892Z,68.24
2019-04-13T04:01:33.520Z,67.81
2019-04-13T04:04:56.791Z,67.53
2019-04-13T04:08:19.777Z,67.92
2019-04-13T04:11:43.774Z,67.99
2019-04-13T04:15:08.120Z,67.78
2019-04-13T04:18:31.395Z,67.81
2019-04-13T04:21:54.408Z,68.31
2019-04-13T04:25:17.692Z,68.48
2019-04-13T04:28:40.664Z,68.57
2019-04-13T04:32:03.673Z,68.73
2019-04-13T04:35:26.689Z,68.99
2019-04-13T04:38:49.700Z,68.52
2019-04-13T04:42:12.745Z,68.52
2019-04-13T04:45:36.048Z,68.43
2019-04-13T04:48:59.409Z,67.91
2019-04-13T04:52:22.414Z,68.40
2019-04-13T04:55:45.383Z,68.47
2019-04-13T04:59:09.730Z,69.06
2019-04-13T05:02:33.073Z,69.17
2019-04-13T05:05:56.419Z,69.25
2019-04-13T05:09:19.466Z,68.61
2019-04-13T05:12:42.497Z,68.31
2019-04-13T05:16:05.486Z,68.73
2019-04-13T05:19:28.555Z,68.83
2019-04-13T05:22:51.547Z,67.88
2019-04-13T05:26:14.982Z,68.05
2019-04-13T05:29:41.491Z,67.70
2019-04-13T05:33:04.522Z,67.44
2019-04-13T05:36:27.871Z,66.47
2019-04-13T05:39:50.933Z,66.48
2019-04-13T05:43:14.283Z,66.81
2019-04-13T05:46:38.738Z,66.97
2019-04-13T05:50:01.814Z,67.15
2019-04-13T05:53:25.263Z,66.81
2019-04-13T05:56:48.251Z,66.15
2019-04-13T06:00:12.464Z,66.70
2019-04-13T06:03:35.490Z,66.51
2019-04-13T06:07:00.107Z,65.34
2019-04-13T06:10:23.417Z,66.21
2019-04-13T06:13:46.437Z,64.90
2019-04-13T06:17:09.422Z,64.13
2019-04-13T06:20:32.455Z,63.72
2019-04-13T06:23:55.454Z,64.43
2019-04-13T06:27:18.873Z,64.18
2019-04-13T06:31:00.102Z,63.82
2019-04-13T06:34:54.848Z,63.84
2019-04-13T06:38:21.586Z,63.80
2019-04-13T06:41:44.297Z,64.28
2019-04-13T06:45:13.299Z,63.72
2019-04-13T06:48:37.737Z,63.19
2019-04-13T06:52:01.633Z,63.31
2019-04-13T06:55:26.201Z,63.07
2019-04-13T06:58:51.717Z,62.63
2019-04-13T07:02:14.559Z,62.24
2019-04-13T07:05:38.436Z,61.69
2019-04-13T07:09:21.217Z,62.30
2019-04-13T07:13:05.949Z,61.71
2019-04-13T07:16:35.197Z,60.84
2019-04-13T07:20:02.765Z,61.73
2019-04-13T07:23:26.698Z,61.22
2019-04-13T07:26:49.847Z,61.25
2019-04-13T07:30:14.234Z,61.18
2019-04-13T07:33:41.464Z,60.34
2019-04-13T07:37:04.586Z,59.70
2019-04-13T07:40:28.024Z,60.02
2019-04-13T07:43:51.096Z,59.25
2019-04-13T07:47:27.639Z,58.82
2019-04-13T07:50:57.103Z,57.77
2019-04-13T07:54:20.826Z,57.93
2019-04-13T07:57:43.839Z,57.22
2019-04-13T08:01:09.399Z,57.19
2019-04-13T08:04:32.584Z,56.44
2019-04-13T08:07:55.638Z,55.78
2019-04-13T08:11:18.800Z,54.56
2019-04-13T08:14:41.847Z,53.59
2019-04-13T08:18:05.104Z,55.89
2019-04-13T08:21:33.072Z,56.20
2019-04-13T08:24:54.419Z,56.20
2019-04-13T08:28:17.494Z,54.30
2019-04-13T08:31:41.350Z,53.52
2019-04-13T08:35:04.366Z,53.20
2019-04-13T08:38:28.693Z,53.09
2019-04-13T08:41:52.280Z,52.58
2019-04-13T08:45:15.481Z,52.60
2019-04-13T08:48:40.214Z,52.12
2019-04-13T08:52:03.299Z,51.59
2019-04-13T08:55:26.690Z,52.56
2019-04-13T08:58:49.743Z,52.73
2019-04-13T09:02:12.803Z,52.57
2019-04-13T09:05:36.285Z,52.59
2019-04-13T09:09:02.824Z,51.73
2019-04-13T09:12:26.774Z,51.75
2019-04-13T09:15:51.213Z,51.30
2019-04-13T09:19:40.815Z,50.89
2019-04-13T09:23:06.769Z,50.09
2019-04-13T09:26:29.888Z,49.31
2019-04-13T09:29:56.032Z,47.78
2019-04-13T09:33:19.147Z,47.66
2019-04-13T09:36:42.303Z,48.69
2019-04-13T09:40:09.057Z,48.12
2019-04-13T09:43:57.711Z,47.25
2019-04-13T09:47:25.677Z,47.27
2019-04-13T09:50:48.730Z,46.52
2019-04-13T09:54:11.705Z,46.19
2019-04-13T09:57:35.010Z,45.20
2019-04-13T10:01:01.515Z,45.02
2019-04-13T10:04:23.084Z,42.83
2019-04-13T10:07:46.098Z,43.54
2019-04-13T10:11:09.712Z,40.35
2019-04-13T10:14:52.625Z,40.40
2019-04-13T10:18:26.765Z,41.49
2019-04-13T10:21:50.525Z,42.50
2019-04-13T10:25:14.637Z,41.63
2019-04-13T10:28:40.391Z,43.32
2019-04-13T10:32:03.427Z,42.28
2019-04-13T10:35:26.460Z,42.91
2019-04-13T10:38:49.456Z,40.20
2019-04-13T10:42:12.492Z,34.72
2019-04-13T10:46:00.820Z,34.78
2019-04-13T10:49:34.487Z,30.55
2019-04-13T10:52:56.706Z,30.67
2019-04-13T10:56:20.027Z,29.72
2019-04-13T10:59:43.041Z,34.30
2019-04-13T11:03:06.034Z,38.70
2019-04-13T11:06:29.028Z,43.76
2019-04-13T11:09:52.384Z,49.36
2019-04-13T11:13:15.617Z,52.12
2019-04-13T11:16:41.006Z,51.00
2019-04-13T11:20:04.678Z,50.89
2019-04-13T11:23:35.845Z,52.23
2019-04-13T11:26:52.891Z,51.66
2019-04-13T11:30:16.292Z,52.83
2019-04-13T11:33:39.283Z,51.37
2019-04-13T11:37:02.295Z,51.27
2019-04-13T11:40:25.308Z,50.25
2019-04-13T11:44:07.754Z,48.42
2019-04-13T11:48:05.443Z,46.53
2019-04-13T11:51:32.139Z,42.20
2019-04-13T11:54:55.304Z,40.07
2019-04-13T11:58:18.311Z,36.19
2019-04-13T12:02:03.692Z,35.50
2019-04-13T12:05:39.002Z,35.27
2019-04-13T12:09:09.373Z,29.49
2019-04-13T12:12:55.057Z,30.76
2019-04-13T12:16:37.838Z,30.07
2019-04-13T12:20:08.594Z,28.06
2019-04-13T12:23:32.021Z,25.86
2019-04-13T12:26:55.072Z,26.17
2019-04-13T12:30:22.510Z,26.79
2019-04-13T12:33:45.811Z,25.67
2019-04-13T12:37:11.636Z,27.40
2019-04-13T12:40:43.543Z,25.95
2019-04-13T12:44:09.200Z,24.18
2019-04-13T12:47:32.324Z,21.92
2019-04-13T12:50:55.667Z,22.60
2019-04-13T12:54:18.690Z,24.24
2019-04-13T12:57:41.691Z,22.04
2019-04-13T13:01:27.746Z,22.02
2019-04-13T13:05:19.076Z,22.11
2019-04-13T13:08:42.080Z,23.17
2019-04-13T13:12:06.630Z,24.44
2019-04-13T13:15:29.922Z,29.97
2019-04-13T13:18:53.022Z,33.58
2019-04-13T13:22:17.661Z,35.88
2019-04-13T13:25:40.828Z,36.51
2019-04-13T13:29:03.790Z,37.60
2019-04-13T13:32:26.831Z,37.47
2019-04-13T13:35:49.833Z,40.01
2019-04-13T13:39:13.981Z,39.31
2019-04-13T13:42:38.657Z,39.82
2019-04-13T13:46:02.405Z,41.29
2019-04-13T13:49:25.569Z,41.61
2019-04-13T13:52:48.564Z,41.18
2019-04-13T13:56:11.618Z,39.85
2019-04-13T13:59:34.604Z,39.44
2019-04-13T14:02:57.890Z,37.94
2019-04-13T14:06:21.296Z,36.31
2019-04-13T14:10:03.881Z,33.81
2019-04-13T14:13:29.526Z,32.12
2019-04-13T14:16:51.747Z,30.89
2019-04-13T14:20:18.876Z,30.59
2019-04-13T14:23:42.300Z,33.00
2019-04-13T14:27:05.588Z,34.85
2019-04-13T14:30:28.953Z,34.84
2019-04-13T14:33:52.400Z,34.22
2019-04-13T14:37:17.578Z,30.79
2019-04-13T14:40:40.691Z,28.25
2019-04-13T14:44:03.826Z,27.32
2019-04-13T14:47:26.889Z,27.32
2019-04-13T14:50:50.248Z,23.97
2019-04-13T14:54:13.623Z,26.18
2019-04-13T14:57:39.052Z,26.46
2019-04-13T15:01:01.660Z,28.36
2019-04-13T15:04:25.043Z,32.01
2019-04-13T15:07:48.041Z,33.56
2019-04-13T15:11:16.881Z,32.93
2019-04-13T15:14:36.774Z,31.73
2019-04-13T15:18:09.662Z,35.22
2019-04-13T15:21:33.690Z,35.12
2019-04-13T15:24:58.642Z,35.09
2019-04-13T15:28:21.275Z,36.63
2019-04-13T15:31:46.817Z,36.77
2019-04-13T15:35:13.645Z,37.20
2019-04-13T15:38:35.259Z,35.11
2019-04-13T15:42:05.822Z,30.47
2019-04-13T15:45:24.555Z,28.18
2019-04-13T15:48:49.455Z,25.48
2019-04-13T15:52:12.772Z,24.90
2019-04-13T15:55:35.847Z,23.81
2019-04-13T15:58:59.413Z,21.68
2019-04-13T16:02:22.918Z,21.18
2019-04-13T16:05:47.394Z,20.39
2019-04-13T16:09:37.071Z,21.04
2019-04-13T16:13:02.543Z,28.30
2019-04-13T16:16:26.189Z,31.34
2019-04-13T16:19:50.244Z,35.84
2019-04-13T16:23:13.386Z,40.00
2019-04-13T16:26:36.402Z,40.90
2019-04-13T16:30:17.896Z,42.77
2019-04-13T16:34:00.935Z,44.22
2019-04-13T16:37:30.459Z,43.91
2019-04-13T16:40:54.305Z,43.49
2019-04-13T16:44:28.877Z,43.45
2019-04-13T16:48:06.825Z,44.57
2019-04-13T16:51:52.458Z,43.35
2019-04-13T16:55:26.532Z,44.81
2019-04-13T16:59:20.127Z,46.56
2019-04-13T17:02:49.972Z,48.70
2019-04-13T17:06:12.962Z,48.52
2019-04-13T17:09:37.077Z,48.70
2019-04-13T17:13:01.117Z,49.95
2019-04-13T17:16:25.513Z,50.90
2019-04-13T17:19:57.797Z,50.08
2019-04-13T17:23:52.787Z,49.35
2019-04-13T17:27:34.225Z,49.78
2019-04-13T17:31:16.864Z,48.47
2019-04-13T17:35:03.932Z,48.43
2019-04-13T17:38:28.752Z,48.21
2019-04-13T17:42:11.892Z,48.64
2019-04-13T17:46:03.361Z,48.98
2019-04-13T17:49:45.043Z,48.42
2019-04-13T17:53:31.034Z,49.77
2019-04-13T17:56:55.220Z,49.24
2019-04-13T18:00:56.367Z,49.35
2019-04-13T18:04:41.736Z,49.46
2019-04-13T18:08:35.705Z,50.06
2019-04-13T18:12:20.693Z,51.33
2019-04-13T18:15:53.220Z,52.34
2019-04-13T18:19:21.276Z,52.08
2019-04-13T18:22:46.757Z,51.33
2019-04-13T18:26:10.675Z,52.47
2019-04-13T18:29:34.655Z,52.27
2019-04-13T18:32:57.857Z,53.49
2019-04-13T18:36:21.348Z,52.66
2019-04-13T18:39:44.398Z,54.21
2019-04-13T18:43:15.081Z,54.67
2019-04-13T18:46:32.325Z,55.18
2019-04-13T18:49:55.399Z,56.87
2019-04-13T18:53:19.120Z,56.81
2019-04-13T18:56:43.954Z,56.72
2019-04-13T19:00:07.734Z,57.71
2019-04-13T19:03:31.939Z,57.41
2019-04-13T19:06:55.034Z,58.14
2019-04-13T19:10:18.060Z,58.59
2019-04-13T19:13:41.499Z,58.47
2019-04-13T19:17:04.610Z,59.66
2019-04-13T19:20:29.995Z,59.49
2019-04-13T19:23:53.049Z,60.00
2019-04-13T19:27:17.153Z,60.00
2019-04-13T19:30:40.210Z,60.10
2019-04-13T19:34:03.187Z,60.03
2019-04-13T19:37:26.569Z,59.16
2019-04-13T19:40:49.885Z,59.21
2019-04-13T19:44:12.912Z,58.40
2019-04-13T19:47:35.879Z,58.77
2019-04-13T19:51:01.782Z,57.63
2019-04-13T19:54:25.492Z,58.21
2019-04-13T19:57:48.841Z,58.45
2019-04-13T20:01:13.981Z,58.50
2019-04-13T20:04:37.065Z,57.35
2019-04-13T20:08:00.075Z,58.96
2019-04-13T20:11:23.066Z,58.11
2019-04-13T20:14:46.260Z,58.67
2019-04-13T20:18:09.289Z,58.91
2019-04-13T20:21:32.264Z,58.75
2019-04-13T20:24:56.395Z,59.10
2019-04-13T20:28:20.069Z,59.15
2019-04-13T20:31:44.252Z,59.24
2019-04-13T20:35:08.409Z,60.46
2019-04-13T20:38:32.559Z,60.91
2019-04-13T20:42:01.199Z,61.08
2019-04-13T20:45:22.155Z,61.45
2019-04-13T20:48:46.817Z,62.15
2019-04-13T20:52:10.039Z,61.89
2019-04-13T20:55:33.008Z,62.30
2019-04-13T20:58:57.491Z,62.72
2019-04-13T21:02:22.005Z,62.13
2019-04-13T21:05:45.229Z,62.22
2019-04-13T21:09:11.585Z,62.54
2019-04-13T21:12:34.893Z,62.73
2019-04-13T21:15:59.653Z,62.73
2019-04-13T21:19:24.164Z,62.66
2019-04-13T21:22:48.493Z,62.84
2019-04-13T21:26:11.656Z,63.04
2019-04-13T21:29:35.071Z,63.59
2019-04-13T21:33:00.439Z,62.81
2019-04-13T21:36:23.990Z,62.92
2019-04-13T21:39:48.270Z,63.54
2019-04-13T21:43:11.415Z,62.51
2019-04-13T21:46:34.949Z,63.36
2019-04-13T21:50:11.604Z,63.72
2019-04-13T21:53:46.374Z,63.24
2019-04-13T21:57:09.510Z,64.20
2019-04-13T22:00:55.481Z,65.17
2019-04-13T22:04:19.712Z,64.79
2019-04-13T22:07:43.798Z,65.14
2019-04-13T22:11:08.209Z,64.34
2019-04-13T22:14:41.469Z,63.21
2019-04-13T22:17:57.551Z,64.11
2019-04-13T22:21:21.917Z,64.40
2019-04-13T22:24:46.235Z,64.32
2019-04-13T22:28:13.585Z,64.48
2019-04-13T22:31:53.462Z,64.53
2019-04-13T22:35:54.771Z,64.37
2019-04-13T22:39:18.200Z,64.46
2019-04-13T22:42:42.524Z,63.66
2019-04-13T22:46:06.424Z,64.17
2019-04-13T22:49:38.490Z,63.25
2019-04-13T22:53:19.944Z,62.81
2019-04-13T22:56:50.856Z,64.16
2019-04-13T23:00:17.949Z,64.92
2019-04-13T23:03:43.949Z,64.75
2019-04-13T23:07:07.087Z,65.28
2019-04-13T23:10:31.018Z,65.72
2019-04-13T23:13:54.163Z,65.47
2019-04-13T23:17:18.017Z,64.60
2019-04-13T23:20:41.144Z,65.05
2019-04-13T23:24:04.238Z,64.78
2019-04-13T23:27:30.841Z,65.44
2019-04-13T23:30:53.891Z,64.95
2019-04-13T23:34:18.119Z,64.78
2019-04-13T23:37:41.469Z,64.79
2019-04-13T23:41:04.590Z,65.25
2019-04-13T23:44:29.625Z,65.04
2019-04-13T23:47:53.723Z,64.91
2019-04-13T23:51:18.251Z,64.57
2019-04-13T23:54:43.630Z,65.05
2019-04-13T23:58:36.339Z,67.10
